< < Back
Terminal Aerodrome Forecast


Current Version              Previous Versions:   1  2  3  4  5  6  7  8  9  

Terminal Aerodrome Forecast

060
FTUS42 KFFC 292141 AAB
TAFATL
TAF AMD
KATL 292141Z 2922/3024 19008KT P6SM SCT045
     FM292300 19007KT P6SM BKN035
     FM300500 17007KT P6SM BKN035
     FM301100 23010KT 5SM -RA BR OVC012
     FM301300 25010KT 5SM -RA BR BKN008 OVC012
     FM301600 29012KT P6SM BKN035
     FM302000 30014KT P6SM FEW035=

Latest METAR

679
SAUS70 KWBC 292200
MTRATL
METAR KATL 292152Z 18008KT 10SM SCT060 16/M06 A3025 RMK AO2 SLP247
T01611061


USA.gov is the U.S. government's official web portal to all federal, state and local government web resources and services.